createdAt,value
2019-06-20T00:01:01.099Z,0
2019-06-20T00:01:53.419Z,0
2019-06-20T00:02:19.620Z,0
2019-06-20T00:03:11.903Z,0
2019-06-20T00:04:04.191Z,0
2019-06-20T00:04:30.365Z,0
2019-06-20T00:05:22.766Z,0
2019-06-20T00:06:41.263Z,0
2019-06-20T00:07:33.570Z,0
2019-06-20T00:07:59.712Z,0
2019-06-20T00:08:52.144Z,0
2019-06-20T00:09:18.292Z,0
2019-06-20T00:09:44.483Z,0
2019-06-20T00:10:36.804Z,0
2019-06-20T00:11:02.979Z,0
2019-06-20T00:11:56.780Z,0
2019-06-20T00:12:23.236Z,0
2019-06-20T00:13:16.542Z,0
2019-06-20T00:13:42.682Z,0
2019-06-20T00:14:35.028Z,0
2019-06-20T00:15:27.339Z,0
2019-06-20T00:15:53.483Z,0
2019-06-20T00:16:45.863Z,0
2019-06-20T00:18:04.358Z,0
2019-06-20T00:18:56.696Z,0
2019-06-20T00:19:22.834Z,0
2019-06-20T00:20:15.121Z,0
2019-06-20T00:21:33.552Z,0
2019-06-20T00:22:25.906Z,0
2019-06-20T00:23:44.358Z,0
2019-06-20T00:24:36.717Z,0
2019-06-20T00:25:03.083Z,0
2019-06-20T00:25:55.220Z,0
2019-06-20T00:27:13.719Z,0
2019-06-20T00:28:06.042Z,0
2019-06-20T00:28:32.183Z,0
2019-06-20T00:29:24.515Z,0
2019-06-20T00:30:16.918Z,0
2019-06-20T00:30:43.082Z,0
2019-06-20T00:31:35.427Z,0
2019-06-20T00:32:53.905Z,0
2019-06-20T00:33:46.266Z,0
2019-06-20T00:34:12.500Z,0
2019-06-20T00:35:04.776Z,0
2019-06-20T00:35:57.089Z,0
2019-06-20T00:36:23.230Z,0
2019-06-20T00:37:15.564Z,0
2019-06-20T00:38:34.072Z,0
2019-06-20T00:39:26.379Z,0
2019-06-20T00:39:52.541Z,0
2019-06-20T00:40:44.865Z,0
2019-06-20T00:41:37.215Z,0
2019-06-20T00:42:03.381Z,0
2019-06-20T00:42:55.732Z,0
2019-06-20T00:43:22.880Z,0
2019-06-20T00:44:15.181Z,0
2019-06-20T00:45:33.633Z,0
2019-06-20T00:46:25.929Z,0
2019-06-20T00:47:44.367Z,0
2019-06-20T00:48:36.821Z,0
2019-06-20T00:49:02.979Z,0
2019-06-20T00:49:55.330Z,0
2019-06-20T00:51:13.937Z,0
2019-06-20T00:52:06.440Z,0
2019-06-20T00:52:32.587Z,0
2019-06-20T00:53:25.006Z,0
2019-06-20T00:54:17.374Z,0
2019-06-20T00:54:43.537Z,0
2019-06-20T00:55:35.886Z,0
2019-06-20T00:56:54.377Z,0
2019-06-20T00:57:46.811Z,0
2019-06-20T00:58:12.968Z,0
2019-06-20T00:59:05.318Z,0
2019-06-20T01:00:23.807Z,0
2019-06-20T01:01:16.197Z,0
2019-06-20T01:01:42.362Z,0
2019-06-20T01:02:34.730Z,0
2019-06-20T01:03:27.134Z,0
2019-06-20T01:03:53.321Z,0
2019-06-20T01:04:45.679Z,0
2019-06-20T01:06:04.168Z,0
2019-06-20T01:06:56.582Z,0
2019-06-20T01:07:22.776Z,0
2019-06-20T01:08:15.168Z,0
2019-06-20T01:09:33.672Z,0
2019-06-20T01:10:25.959Z,0
2019-06-20T01:10:52.143Z,0
2019-06-20T01:11:44.574Z,0
2019-06-20T01:12:36.898Z,0
2019-06-20T01:13:03.037Z,0
2019-06-20T01:13:56.376Z,0
2019-06-20T01:14:22.511Z,0
2019-06-20T01:15:14.837Z,0
2019-06-20T01:16:07.156Z,0
2019-06-20T01:16:33.356Z,0
2019-06-20T01:17:25.691Z,0
2019-06-20T01:18:44.178Z,0
2019-06-20T01:19:36.500Z,0
2019-06-20T01:20:02.637Z,0
2019-06-20T01:20:54.964Z,0
2019-06-20T01:21:47.302Z,0
2019-06-20T01:22:13.473Z,0
2019-06-20T01:23:05.784Z,0
2019-06-20T01:24:24.263Z,0
2019-06-20T01:25:16.615Z,0
2019-06-20T01:25:42.814Z,0
2019-06-20T01:26:35.172Z,0
2019-06-20T01:27:53.614Z,0
2019-06-20T01:28:45.896Z,0
2019-06-20T01:30:04.344Z,0
2019-06-20T01:30:56.697Z,0
2019-06-20T01:31:22.867Z,0
2019-06-20T01:32:15.176Z,0
2019-06-20T01:33:33.666Z,0
2019-06-20T01:34:25.942Z,0
2019-06-20T01:35:44.405Z,0
2019-06-20T01:36:36.718Z,0
2019-06-20T01:37:02.856Z,0
2019-06-20T01:37:55.177Z,0
2019-06-20T01:39:13.659Z,0
2019-06-20T01:40:05.979Z,0
2019-06-20T01:41:24.458Z,0
2019-06-20T01:42:16.780Z,0
2019-06-20T01:42:42.949Z,0
2019-06-20T01:43:49.355Z,0
2019-06-20T01:44:03.355Z,0
2019-06-20T01:44:55.686Z,0
2019-06-20T01:46:14.153Z,0
2019-06-20T01:47:06.522Z,0
2019-06-20T01:47:32.658Z,0
2019-06-20T01:48:25.008Z,0
2019-06-20T01:49:17.294Z,0
2019-06-20T01:49:43.458Z,0
2019-06-20T01:50:35.785Z,0
2019-06-20T01:51:54.198Z,0
2019-06-20T01:52:46.525Z,0
2019-06-20T01:53:12.701Z,0
2019-06-20T01:54:05.038Z,0
2019-06-20T01:54:57.389Z,0
2019-06-20T01:55:23.499Z,0
2019-06-20T01:56:15.781Z,0
2019-06-20T01:57:34.268Z,0
2019-06-20T01:58:26.562Z,0
2019-06-20T01:58:52.722Z,0
2019-06-20T01:59:45.070Z,0
2019-06-20T02:01:03.631Z,0
2019-06-20T02:01:56.008Z,0
2019-06-20T02:02:22.171Z,0
2019-06-20T02:03:14.539Z,0
2019-06-20T02:04:06.795Z,0
2019-06-20T02:04:32.939Z,0
2019-06-20T02:05:25.226Z,0
2019-06-20T02:06:43.698Z,0
2019-06-20T02:07:36.973Z,0
2019-06-20T02:08:03.123Z,0
2019-06-20T02:08:55.412Z,0
2019-06-20T02:10:13.939Z,0
2019-06-20T02:11:06.237Z,0
2019-06-20T02:11:32.398Z,0
2019-06-20T02:12:24.726Z,0
2019-06-20T02:13:17.058Z,0
2019-06-20T02:13:43.198Z,0
2019-06-20T02:15:03.671Z,0
2019-06-20T02:15:56.028Z,0
2019-06-20T02:16:22.192Z,0
2019-06-20T02:17:14.566Z,0
2019-06-20T02:18:06.866Z,0
2019-06-20T02:18:33.055Z,0
2019-06-20T02:19:25.326Z,0
2019-06-20T02:20:43.818Z,0
2019-06-20T02:21:36.151Z,0
2019-06-20T02:22:02.362Z,0
2019-06-20T02:22:54.696Z,0
2019-06-20T02:23:47.103Z,0
2019-06-20T02:24:13.310Z,0
2019-06-20T02:25:05.602Z,4
2019-06-20T02:26:24.060Z,4
2019-06-20T02:27:16.377Z,4
2019-06-20T02:27:42.535Z,4
2019-06-20T02:28:34.831Z,4
2019-06-20T02:29:27.221Z,4
2019-06-20T02:29:53.361Z,4
2019-06-20T02:30:45.703Z,4
2019-06-20T02:32:04.220Z,4
2019-06-20T02:32:56.514Z,8
2019-06-20T02:33:22.680Z,8
2019-06-20T02:34:15.001Z,4
2019-06-20T02:35:07.358Z,8
2019-06-20T02:35:33.480Z,8
2019-06-20T02:36:25.858Z,8
2019-06-20T02:37:44.320Z,8
2019-06-20T02:38:36.640Z,12
2019-06-20T02:39:02.862Z,12
2019-06-20T02:39:55.211Z,8
2019-06-20T02:41:13.710Z,16
2019-06-20T02:42:05.993Z,12
2019-06-20T02:43:24.449Z,20
2019-06-20T02:44:28.878Z,20
2019-06-20T02:44:44.925Z,24
2019-06-20T02:45:37.239Z,24
2019-06-20T02:46:03.374Z,24
2019-06-20T02:46:55.817Z,28
2019-06-20T02:48:14.317Z,32
2019-06-20T02:49:06.682Z,32
2019-06-20T02:49:32.806Z,36
2019-06-20T02:50:25.411Z,40
2019-06-20T02:51:44.413Z,44
2019-06-20T02:52:37.068Z,52
2019-06-20T02:53:03.238Z,56
2019-06-20T02:53:55.562Z,60
2019-06-20T02:55:14.021Z,72
2019-06-20T02:56:06.334Z,76
2019-06-20T02:56:32.490Z,76
2019-06-20T02:57:24.780Z,84
2019-06-20T02:58:17.144Z,88
2019-06-20T02:58:43.310Z,92
2019-06-20T02:59:35.632Z,100
2019-06-20T03:00:54.270Z,112
2019-06-20T03:01:46.542Z,124
2019-06-20T03:02:12.762Z,128
2019-06-20T03:03:05.073Z,140
2019-06-20T03:04:23.562Z,148
2019-06-20T03:05:16.858Z,156
2019-06-20T03:05:42.999Z,160
2019-06-20T03:06:35.317Z,164
2019-06-20T03:07:53.860Z,176
2019-06-20T03:08:46.194Z,176
2019-06-20T03:09:12.377Z,180
2019-06-20T03:10:04.734Z,192
2019-06-20T03:10:57.033Z,212
2019-06-20T03:11:23.203Z,216
2019-06-20T03:12:15.502Z,224
2019-06-20T03:13:33.941Z,252
2019-06-20T03:14:26.309Z,264
2019-06-20T03:14:52.495Z,272
2019-06-20T03:15:44.830Z,292
2019-06-20T03:16:37.139Z,308
2019-06-20T03:17:03.308Z,316
2019-06-20T03:17:55.595Z,324
2019-06-20T03:19:14.052Z,348
2019-06-20T03:20:06.341Z,368
2019-06-20T03:20:32.511Z,368
2019-06-20T03:21:24.849Z,380
2019-06-20T03:22:17.187Z,388
2019-06-20T03:22:43.368Z,392
2019-06-20T03:23:35.765Z,440
2019-06-20T03:24:54.293Z,468
2019-06-20T03:25:46.586Z,480
2019-06-20T03:26:12.718Z,456
2019-06-20T03:27:05.064Z,500
2019-06-20T03:28:23.550Z,448
2019-06-20T03:29:15.872Z,456
2019-06-20T03:30:34.342Z,416
2019-06-20T03:31:26.680Z,380
2019-06-20T03:31:52.868Z,368
2019-06-20T03:32:45.241Z,372
2019-06-20T03:34:03.742Z,432
2019-06-20T03:34:56.175Z,404
2019-06-20T03:35:22.369Z,396
2019-06-20T03:36:14.663Z,436
2019-06-20T03:37:06.953Z,464
2019-06-20T03:37:33.109Z,492
2019-06-20T03:38:25.457Z,500
2019-06-20T03:39:43.958Z,532
2019-06-20T03:40:36.311Z,576
2019-06-20T03:41:02.498Z,600
2019-06-20T03:41:54.790Z,656
2019-06-20T03:42:47.151Z,672
2019-06-20T03:43:13.292Z,688
2019-06-20T03:44:06.590Z,740
2019-06-20T03:44:32.804Z,776
2019-06-20T03:45:26.078Z,792
2019-06-20T03:45:52.371Z,816
2019-06-20T03:46:44.659Z,844
2019-06-20T03:47:37.009Z,840
2019-06-20T03:48:03.157Z,836
2019-06-20T03:48:55.489Z,836
2019-06-20T03:50:13.958Z,844
2019-06-20T03:51:06.251Z,892
2019-06-20T03:51:32.400Z,908
2019-06-20T03:52:24.746Z,972
2019-06-20T03:53:17.101Z,1012
2019-06-20T03:53:43.239Z,1028
2019-06-20T03:54:35.564Z,1072
2019-06-20T03:55:54.019Z,1088
2019-06-20T03:56:46.334Z,1104
2019-06-20T03:57:12.479Z,1096
2019-06-20T03:58:04.767Z,1128
2019-06-20T03:58:57.067Z,1192
2019-06-20T03:59:23.209Z,1232
2019-06-20T04:00:15.502Z,1320
2019-06-20T04:01:34.010Z,1368
2019-06-20T04:02:26.362Z,1416
2019-06-20T04:02:52.496Z,1456
2019-06-20T04:03:44.853Z,1584
2019-06-20T04:04:37.169Z,1640
2019-06-20T04:05:03.340Z,1632
2019-06-20T04:05:55.680Z,1620
2019-06-20T04:07:14.152Z,1684
2019-06-20T04:08:06.483Z,1736
2019-06-20T04:08:32.621Z,1700
2019-06-20T04:09:26.576Z,1668
2019-06-20T04:09:54.189Z,1704
2019-06-20T04:11:17.153Z,1800
2019-06-20T04:11:45.033Z,1828
2019-06-20T04:13:04.859Z,1900
2019-06-20T04:13:32.177Z,1868
2019-06-20T04:14:25.190Z,1988
2019-06-20T04:14:52.564Z,2084
2019-06-20T04:15:46.201Z,2164
2019-06-20T04:16:12.723Z,2120
2019-06-20T04:17:05.550Z,2028
2019-06-20T04:18:24.601Z,1896
2019-06-20T04:19:17.454Z,1948
2019-06-20T04:19:43.820Z,2012
2019-06-20T04:20:36.591Z,2076
2019-06-20T04:21:02.999Z,2076
2019-06-20T04:21:55.664Z,1972
2019-06-20T04:23:15.119Z,1940
2019-06-20T04:24:34.315Z,1664
2019-06-20T04:25:26.790Z,1684
2019-06-20T04:25:52.995Z,1688
2019-06-20T04:26:45.297Z,1588
2019-06-20T04:28:03.874Z,1476
2019-06-20T04:28:56.201Z,1452
2019-06-20T04:29:22.392Z,1456
2019-06-20T04:30:15.682Z,1468
2019-06-20T04:31:34.164Z,1500
2019-06-20T04:32:26.490Z,1512
2019-06-20T04:32:52.661Z,1492
2019-06-20T04:33:44.991Z,1480
2019-06-20T04:34:37.355Z,1492
2019-06-20T04:35:03.492Z,1544
2019-06-20T04:35:55.929Z,1644
2019-06-20T04:37:14.434Z,1772
2019-06-20T04:38:06.773Z,1956
2019-06-20T04:38:32.917Z,2020
2019-06-20T04:39:26.239Z,2128
2019-06-20T04:39:52.413Z,2208
2019-06-20T04:40:44.776Z,2472
2019-06-20T04:41:37.047Z,2760
2019-06-20T04:42:03.238Z,2912
2019-06-20T04:42:55.545Z,3156
2019-06-20T04:44:13.994Z,3100
2019-06-20T04:45:06.318Z,2984
2019-06-20T04:45:35.358Z,3100
2019-06-20T04:46:25.788Z,3168
2019-06-20T04:47:44.222Z,2976
2019-06-20T04:48:36.551Z,3200
2019-06-20T04:49:02.695Z,3332
2019-06-20T04:49:55.039Z,3516
2019-06-20T04:50:47.347Z,3588
2019-06-20T04:51:13.491Z,3616
2019-06-20T04:52:05.823Z,3612
2019-06-20T04:53:24.287Z,3420
2019-06-20T04:54:16.581Z,3348
2019-06-20T04:54:42.736Z,3320
2019-06-20T04:55:35.135Z,3284
2019-06-20T04:56:53.600Z,3264
2019-06-20T04:57:45.929Z,3396
2019-06-20T04:59:04.400Z,3644
2019-06-20T04:59:56.759Z,3884
2019-06-20T05:00:22.909Z,3996
2019-06-20T05:01:15.198Z,4716
2019-06-20T05:02:34.706Z,5812
2019-06-20T05:03:27.067Z,5864
2019-06-20T05:03:53.216Z,5784
2019-06-20T05:04:45.614Z,6044
2019-06-20T05:06:04.167Z,5992
2019-06-20T05:06:56.470Z,6020
2019-06-20T05:07:22.622Z,5932
2019-06-20T05:08:14.973Z,6680
2019-06-20T05:09:07.268Z,6540
2019-06-20T05:09:33.407Z,7120
2019-06-20T05:10:25.707Z,7260
2019-06-20T05:11:44.246Z,7308
2019-06-20T05:12:36.592Z,7940
2019-06-20T05:13:03.771Z,7684
2019-06-20T05:13:56.076Z,7480
2019-06-20T05:14:22.494Z,7436
2019-06-20T05:15:14.835Z,6828
2019-06-20T05:16:35.339Z,6600
2019-06-20T05:17:54.426Z,4780
2019-06-20T05:18:46.721Z,4924
2019-06-20T05:19:12.856Z,4928
2019-06-20T05:20:05.212Z,4196
2019-06-20T05:21:23.717Z,4132
2019-06-20T05:22:16.032Z,5024
2019-06-20T05:22:42.175Z,5536
2019-06-20T05:23:34.539Z,6220
2019-06-20T05:24:26.954Z,5296
2019-06-20T05:24:53.106Z,5268
2019-06-20T05:25:45.404Z,6132
2019-06-20T05:27:03.891Z,6432
2019-06-20T05:27:56.208Z,5296
2019-06-20T05:28:22.342Z,5284
2019-06-20T05:29:14.931Z,6024
2019-06-20T05:30:33.789Z,6864
2019-06-20T05:31:26.357Z,7564
2019-06-20T05:31:52.647Z,7188
2019-06-20T05:32:45.025Z,6328
2019-06-20T05:33:37.338Z,6240
2019-06-20T05:34:03.519Z,6260
2019-06-20T05:34:55.877Z,5584
2019-06-20T05:36:14.318Z,6160
2019-06-20T05:37:06.703Z,5912
2019-06-20T05:37:32.880Z,6080
2019-06-20T05:38:25.245Z,7572
2019-06-20T05:39:43.770Z,10916
2019-06-20T05:40:37.172Z,11860
2019-06-20T05:41:03.270Z,11240
2019-06-20T05:41:55.624Z,10116
2019-06-20T05:43:14.115Z,9744
2019-06-20T05:44:06.462Z,9208
2019-06-20T05:44:32.602Z,9484
2019-06-20T05:45:24.944Z,10940
2019-06-20T05:46:47.187Z,12832
2019-06-20T05:47:14.070Z,13720
2019-06-20T05:48:06.453Z,15396
2019-06-20T05:48:32.593Z,15684
2019-06-20T05:49:25.246Z,16184
2019-06-20T05:50:43.735Z,14352
2019-06-20T05:51:39.556Z,12892
2019-06-20T05:52:03.201Z,12076
2019-06-20T05:52:55.610Z,10268
2019-06-20T05:54:14.085Z,10612
2019-06-20T05:55:06.413Z,13296
2019-06-20T05:55:32.915Z,13612
2019-06-20T05:56:24.921Z,13800
2019-06-20T05:57:17.213Z,13924
2019-06-20T05:57:43.376Z,13672
2019-06-20T05:58:35.765Z,11968
2019-06-20T05:59:54.301Z,11988
2019-06-20T06:00:46.647Z,11608
2019-06-20T06:01:12.815Z,10848
2019-06-20T06:02:06.111Z,13028
2019-06-20T06:02:32.299Z,14428
2019-06-20T06:03:24.687Z,13624
2019-06-20T06:04:17.098Z,11692
2019-06-20T06:04:43.949Z,10936
2019-06-20T06:05:37.141Z,10124
2019-06-20T06:06:02.498Z,10216
2019-06-20T06:06:54.834Z,10172
2019-06-20T06:07:47.197Z,8220
2019-06-20T06:08:14.249Z,7884
2019-06-20T06:09:06.544Z,9064
2019-06-20T06:09:32.680Z,10900
2019-06-20T06:10:25.998Z,14032
2019-06-20T06:10:52.194Z,14800
2019-06-20T06:11:44.541Z,17920
2019-06-20T06:13:03.988Z,19168
2019-06-20T06:13:56.348Z,20352
2019-06-20T06:14:22.521Z,20544
2019-06-20T06:15:14.835Z,19808
2019-06-20T06:16:07.178Z,18080
2019-06-20T06:16:35.291Z,17536
2019-06-20T06:17:53.824Z,19584
2019-06-20T06:18:46.119Z,20064
2019-06-20T06:19:12.262Z,20000
2019-06-20T06:20:04.626Z,21120
2019-06-20T06:20:57.002Z,21088
2019-06-20T06:21:23.142Z,18848
2019-06-20T06:22:15.455Z,15548
2019-06-20T06:23:34.019Z,15008
2019-06-20T06:24:26.314Z,16036
2019-06-20T06:24:52.835Z,16104
2019-06-20T06:25:45.179Z,15376
2019-06-20T06:27:03.682Z,13724
2019-06-20T06:27:55.997Z,11484
2019-06-20T06:28:22.171Z,10920
2019-06-20T06:29:14.573Z,10012
2019-06-20T06:30:06.886Z,9348
2019-06-20T06:30:33.026Z,10400
2019-06-20T06:31:25.369Z,13944
2019-06-20T06:32:45.872Z,15172
2019-06-20T06:34:04.365Z,21408
2019-06-20T06:34:56.700Z,23872
2019-06-20T06:35:22.886Z,24608
2019-06-20T06:36:15.191Z,22624
2019-06-20T06:37:33.697Z,20736
2019-06-20T06:38:27.049Z,17824
2019-06-20T06:38:53.224Z,18016
2019-06-20T06:39:45.569Z,18144
2019-06-20T06:41:04.023Z,12800
2019-06-20T06:41:56.388Z,13468
2019-06-20T06:42:22.587Z,13428
2019-06-20T06:43:14.872Z,12312
2019-06-20T06:44:08.408Z,12868
2019-06-20T06:44:34.410Z,14952
2019-06-20T06:45:26.786Z,17536
2019-06-20T06:45:52.936Z,17408
2019-06-20T06:46:53.466Z,21696
2019-06-20T06:47:13.399Z,27904
2019-06-20T06:48:05.703Z,36896
2019-06-20T06:49:24.171Z,36704
2019-06-20T06:50:16.471Z,32416
2019-06-20T06:50:42.625Z,30784
2019-06-20T06:51:37.986Z,26272
2019-06-20T06:52:27.277Z,18464
2019-06-20T06:52:53.449Z,16052
2019-06-20T06:53:45.803Z,15096
2019-06-20T06:55:04.338Z,13808
2019-06-20T06:56:23.813Z,9672
2019-06-20T06:57:16.179Z,7392
2019-06-20T06:57:42.329Z,6412
2019-06-20T06:58:34.688Z,5536
2019-06-20T06:59:27.017Z,5260
2019-06-20T06:59:53.171Z,5172
2019-06-20T07:00:45.542Z,4476
2019-06-20T07:02:04.104Z,3516
2019-06-20T07:02:56.448Z,3868
2019-06-20T07:03:22.609Z,3980
2019-06-20T07:04:14.971Z,4404
2019-06-20T07:05:07.289Z,4888
2019-06-20T07:05:33.442Z,5140
2019-06-20T07:06:25.809Z,5532
2019-06-20T07:07:44.332Z,6556
2019-06-20T07:08:36.665Z,8088
2019-06-20T07:09:02.877Z,9140
2019-06-20T07:09:55.243Z,11472
2019-06-20T07:11:13.765Z,13680
2019-06-20T07:12:06.102Z,16248
2019-06-20T07:12:32.291Z,18304
2019-06-20T07:13:24.597Z,22240
2019-06-20T07:14:16.973Z,24000
2019-06-20T07:14:43.114Z,22528
2019-06-20T07:15:35.466Z,21824
2019-06-20T07:17:00.038Z,22144
2019-06-20T07:17:47.361Z,24320
2019-06-20T07:18:13.544Z,27136
2019-06-20T07:19:05.914Z,30368
2019-06-20T07:20:25.443Z,23680
2019-06-20T07:21:43.960Z,19584
2019-06-20T07:22:36.314Z,17108
2019-06-20T07:23:02.520Z,15572
2019-06-20T07:23:54.859Z,13208
2019-06-20T07:24:47.191Z,13460
2019-06-20T07:25:13.323Z,14572
2019-06-20T07:26:05.672Z,18080
2019-06-20T07:27:24.149Z,17376
2019-06-20T07:28:16.434Z,14328
2019-06-20T07:28:42.578Z,12776
2019-06-20T07:29:34.966Z,11796
2019-06-20T07:30:27.267Z,13024
2019-06-20T07:30:53.430Z,13708
2019-06-20T07:31:45.724Z,13304
2019-06-20T07:33:04.265Z,10188
2019-06-20T07:33:56.609Z,7780
2019-06-20T07:34:22.782Z,7408
2019-06-20T07:35:15.103Z,7084
2019-06-20T07:36:33.674Z,6516
2019-06-20T07:37:25.999Z,6248
2019-06-20T07:37:52.157Z,6236
2019-06-20T07:38:44.507Z,6816
2019-06-20T07:39:36.802Z,8856
2019-06-20T07:40:02.989Z,10760
2019-06-20T07:40:55.403Z,16648
2019-06-20T07:42:13.906Z,33984
2019-06-20T07:43:06.207Z,61312
2019-06-20T07:43:32.410Z,32864
2019-06-20T07:44:24.747Z,24512
2019-06-20T07:45:17.127Z,21952
2019-06-20T07:45:43.286Z,21088
2019-06-20T07:46:36.691Z,19808
2019-06-20T07:47:16.534Z,19328
2019-06-20T07:47:55.204Z,18368
2019-06-20T07:49:13.713Z,18112
2019-06-20T07:50:06.050Z,18624
2019-06-20T07:50:32.196Z,18720
2019-06-20T07:51:24.558Z,18784
2019-06-20T07:52:17.054Z,18560
2019-06-20T07:52:51.808Z,18080
2019-06-20T07:54:03.797Z,16476
2019-06-20T07:54:56.138Z,15428
2019-06-20T07:55:22.321Z,14600
2019-06-20T07:56:15.093Z,12980
2019-06-20T07:57:33.622Z,12804
2019-06-20T07:58:25.923Z,12504
2019-06-20T07:59:44.456Z,12376
2019-06-20T08:00:36.903Z,12052
2019-06-20T08:01:03.051Z,11828
2019-06-20T08:01:55.380Z,11496
2019-06-20T08:03:14.026Z,11616
2019-06-20T08:04:06.509Z,11868
2019-06-20T08:04:32.655Z,12084
2019-06-20T08:05:24.951Z,12408
2019-06-20T08:06:17.356Z,12492
2019-06-20T08:06:43.621Z,12440
2019-06-20T08:07:36.136Z,12080
2019-06-20T08:08:02.373Z,11928
2019-06-20T08:08:54.925Z,11904
2019-06-20T08:10:16.620Z,12928
2019-06-20T08:10:43.968Z,13448
2019-06-20T08:11:36.423Z,14556
2019-06-20T08:12:02.617Z,14948
2019-06-20T08:12:55.250Z,15196
2019-06-20T08:14:13.830Z,14584
2019-06-20T08:15:14.817Z,14000
2019-06-20T08:15:33.455Z,13968
2019-06-20T08:16:25.787Z,14356
2019-06-20T08:17:46.283Z,12332
2019-06-20T08:18:12.482Z,10872
2019-06-20T08:19:04.924Z,8100
2019-06-20T08:19:57.250Z,6164
2019-06-20T08:20:23.500Z,5284
2019-06-20T08:21:15.842Z,4320
2019-06-20T08:22:34.438Z,3608
2019-06-20T08:23:26.771Z,3552
2019-06-20T08:23:53.056Z,3636
2019-06-20T08:24:45.684Z,3540
2019-06-20T08:25:12.432Z,3464
2019-06-20T08:26:04.752Z,3640
2019-06-20T08:26:58.635Z,3776
2019-06-20T08:27:25.489Z,3764
2019-06-20T08:28:45.965Z,3776
2019-06-20T08:29:20.549Z,3812
2019-06-20T08:30:34.853Z,4744
2019-06-20T08:31:53.968Z,7184
2019-06-20T08:32:46.576Z,8700
2019-06-20T08:33:14.654Z,9432
2019-06-20T08:34:34.292Z,11212
2019-06-20T08:35:53.573Z,13100
2019-06-20T08:36:46.006Z,14080
2019-06-20T08:37:13.231Z,14716
2019-06-20T08:38:07.472Z,16100
2019-06-20T08:38:32.856Z,16900
2019-06-20T08:39:29.076Z,18144
2019-06-20T08:39:52.631Z,18432
2019-06-20T08:40:44.964Z,20096
2019-06-20T08:42:06.366Z,45440
2019-06-20T08:42:32.574Z,51296
2019-06-20T08:43:25.111Z,32288
2019-06-20T08:44:45.693Z,95296
2019-06-20T08:46:08.003Z,96704
2019-06-20T08:47:24.796Z,100320
2019-06-20T08:48:44.530Z,102336
2019-06-20T08:50:04.245Z,77088
2019-06-20T08:50:57.229Z,102816
2019-06-20T08:51:23.767Z,102624
2019-06-20T08:52:17.214Z,106752
2019-06-20T08:52:43.406Z,95616
2019-06-20T08:54:05.416Z,102464
2019-06-20T08:54:58.187Z,95104
2019-06-20T08:55:24.381Z,89600
2019-06-20T08:56:44.395Z,90880
2019-06-20T08:58:05.421Z,66560
2019-06-20T08:58:57.286Z,75584
2019-06-20T08:59:25.048Z,106976
2019-06-20T09:00:44.724Z,86368
2019-06-20T09:01:37.133Z,94048
2019-06-20T09:02:56.532Z,110144
2019-06-20T09:03:22.821Z,106336
2019-06-20T09:04:17.194Z,15452
2019-06-20T09:04:43.369Z,48000
2019-06-20T09:05:35.898Z,37952
2019-06-20T09:06:55.690Z,108480
2019-06-20T09:07:46.920Z,52864
2019-06-20T09:08:14.533Z,38208
2019-06-20T09:09:33.960Z,112160
2019-06-20T09:10:26.490Z,40128
2019-06-20T09:10:54.089Z,55072
2019-06-20T09:11:45.893Z,102400
2019-06-20T09:12:12.216Z,119424
2019-06-20T09:13:06.181Z,114592
2019-06-20T09:13:32.357Z,116032
2019-06-20T09:14:25.596Z,41184
2019-06-20T09:15:45.217Z,37824
2019-06-20T09:16:23.866Z,97792
2019-06-20T09:17:06.693Z,97696
2019-06-20T09:17:32.833Z,96704
2019-06-20T09:18:26.241Z,59520
2019-06-20T09:18:53.706Z,88384
2019-06-20T09:19:45.736Z,47712
2019-06-20T09:21:04.664Z,30752
2019-06-20T09:21:57.973Z,23136
2019-06-20T09:22:24.231Z,21984
2019-06-20T09:23:16.605Z,21664
2019-06-20T09:23:42.743Z,20832
2019-06-20T09:24:35.636Z,20832
2019-06-20T09:25:55.925Z,24672
2019-06-20T09:26:46.855Z,25024
2019-06-20T09:27:13.986Z,25856
2019-06-20T09:28:07.041Z,30016
2019-06-20T09:28:33.486Z,30496
2019-06-20T09:29:54.392Z,38432
2019-06-20T09:30:46.991Z,44160
2019-06-20T09:31:14.570Z,41728
2019-06-20T09:32:35.559Z,43264
2019-06-20T09:33:02.974Z,44800
2019-06-20T09:33:56.272Z,39136
2019-06-20T09:34:22.560Z,45856
2019-06-20T09:35:15.414Z,40288
2019-06-20T09:36:35.491Z,33984
2019-06-20T09:37:03.918Z,32832
2019-06-20T09:37:57.122Z,44096
2019-06-20T09:38:24.282Z,46592
2019-06-20T09:39:16.798Z,39104
2019-06-20T09:39:43.125Z,34368
2019-06-20T09:40:36.542Z,28672
2019-06-20T09:41:03.587Z,27808
2019-06-20T09:41:56.550Z,26784
2019-06-20T09:42:22.744Z,26432
2019-06-20T09:43:26.986Z,26592
2019-06-20T09:43:43.538Z,27136
2019-06-20T09:44:36.201Z,29184
2019-06-20T09:45:03.051Z,30624
2019-06-20T09:45:56.075Z,34368
2019-06-20T09:46:22.243Z,36256
2019-06-20T09:47:14.985Z,48576
2019-06-20T09:48:34.705Z,69664
2019-06-20T09:49:26.996Z,47424
2019-06-20T09:49:55.557Z,36448
2019-06-20T09:50:49.291Z,32928
2019-06-20T09:51:15.105Z,35232
2019-06-20T09:52:36.069Z,41600
2019-06-20T09:53:04.396Z,46880
2019-06-20T09:53:58.145Z,25792
2019-06-20T09:54:24.121Z,22144
2019-06-20T09:55:43.904Z,28448
2019-06-20T09:57:05.168Z,26528
2019-06-20T09:58:25.110Z,27424
2019-06-20T09:58:53.113Z,38880
2019-06-20T09:59:56.904Z,36992
2019-06-20T10:01:05.313Z,43776
2019-06-20T10:02:26.890Z,114976
2019-06-20T10:02:54.364Z,111104
2019-06-20T10:03:47.724Z,112256
2019-06-20T10:04:15.285Z,55072
2019-06-20T10:05:34.977Z,28000
2019-06-20T10:06:13.130Z,26880
2019-06-20T10:07:24.365Z,25888
2019-06-20T10:08:43.871Z,26208
2019-06-20T10:09:36.837Z,26080
2019-06-20T10:10:04.097Z,25184
2019-06-20T10:11:24.450Z,24192
2019-06-20T10:12:46.299Z,23648
2019-06-20T10:13:12.885Z,23360
2019-06-20T10:14:06.606Z,22656
2019-06-20T10:14:32.715Z,22368
2019-06-20T10:15:25.558Z,22400
2019-06-20T10:15:53.543Z,22784
2019-06-20T10:16:50.099Z,24128
2019-06-20T10:17:13.493Z,25024
2019-06-20T10:18:06.833Z,26304
2019-06-20T10:18:33.058Z,26400
2019-06-20T10:19:26.268Z,26144
2019-06-20T10:19:54.071Z,26080
2019-06-20T10:20:47.232Z,25792
2019-06-20T10:21:14.184Z,25696
2019-06-20T10:22:33.724Z,25536
2019-06-20T10:23:27.317Z,25632
2019-06-20T10:23:53.937Z,25472
2019-06-20T10:24:47.361Z,25152
2019-06-20T10:25:14.837Z,25088
2019-06-20T10:26:37.603Z,25088
2019-06-20T10:27:03.861Z,25120
2019-06-20T10:27:57.830Z,25312
2019-06-20T10:28:24.110Z,25568
2019-06-20T10:29:16.585Z,26976
2019-06-20T10:29:42.827Z,27328
2019-06-20T10:30:36.662Z,28448
2019-06-20T10:31:03.852Z,29376
2019-06-20T10:31:57.658Z,32096
2019-06-20T10:32:23.823Z,33632
2019-06-20T10:33:17.231Z,43808
2019-06-20T10:33:45.149Z,49920
2019-06-20T10:34:37.365Z,114752
2019-06-20T10:35:03.916Z,117568
2019-06-20T10:36:24.048Z,69440
2019-06-20T10:37:43.890Z,122272
2019-06-20T10:38:36.874Z,87392
2019-06-20T10:39:03.952Z,56608
2019-06-20T10:39:56.799Z,51072
2019-06-20T10:40:23.102Z,48640
2019-06-20T10:41:45.113Z,94176
2019-06-20T10:42:37.295Z,127872
2019-06-20T10:43:04.767Z,120448
2019-06-20T10:44:25.634Z,55616
2019-06-20T10:44:52.791Z,47808
2019-06-20T10:45:47.365Z,40896
2019-06-20T10:46:14.074Z,39104
2019-06-20T10:47:06.551Z,38752
2019-06-20T10:47:36.108Z,49504
2019-06-20T10:48:02.204Z,44736
2019-06-20T10:48:54.835Z,87936
2019-06-20T10:50:14.841Z,104576
2019-06-20T10:51:34.534Z,99008
2019-06-20T10:52:54.323Z,93984
2019-06-20T10:53:47.181Z,95200
2019-06-20T10:54:14.290Z,97440
2019-06-20T10:55:33.932Z,99008
2019-06-20T10:56:26.848Z,99616
2019-06-20T10:56:53.993Z,100288
2019-06-20T10:57:46.783Z,95136
2019-06-20T10:58:13.084Z,33920
2019-06-20T10:59:05.578Z,99008
2019-06-20T11:00:32.657Z,96992
2019-06-20T11:00:53.718Z,86784
2019-06-20T11:01:46.688Z,104736
2019-06-20T11:02:12.974Z,100832
2019-06-20T11:03:05.962Z,96960
2019-06-20T11:03:32.155Z,95424
2019-06-20T11:04:25.676Z,90688
2019-06-20T11:04:52.922Z,95968
2019-06-20T11:05:45.652Z,89472
2019-06-20T11:07:04.536Z,89664
2019-06-20T11:08:24.325Z,41408
2019-06-20T11:09:16.626Z,86880
2019-06-20T11:09:42.896Z,89600